createdAt,value
2024-03-09T00:01:16.738Z,65.94
2024-03-09T00:03:43.313Z,66.15
2024-03-09T00:06:09.804Z,66.34
2024-03-09T00:08:36.437Z,66.92
2024-03-09T00:11:03.033Z,66.90
2024-03-09T00:13:29.522Z,66.81
2024-03-09T00:15:59.704Z,67.21
2024-03-09T00:18:36.448Z,67.04
2024-03-09T00:21:08.123Z,67.27
2024-03-09T00:23:35.152Z,67.14
2024-03-09T00:26:01.679Z,66.73
2024-03-09T00:28:30.589Z,67.11
2024-03-09T00:30:57.020Z,67.43
2024-03-09T00:33:26.474Z,66.31
2024-03-09T00:35:53.000Z,67.23
2024-03-09T00:38:20.568Z,67.17
2024-03-09T00:40:46.969Z,66.92
2024-03-09T00:43:13.466Z,66.35
2024-03-09T00:45:39.942Z,66.86
2024-03-09T00:48:06.626Z,66.61
2024-03-09T00:50:33.415Z,66.83
2024-03-09T00:53:00.029Z,67.46
2024-03-09T00:55:27.112Z,66.25
2024-03-09T00:57:53.624Z,66.93
2024-03-09T01:00:20.831Z,66.28
2024-03-09T01:02:48.686Z,67.21
2024-03-09T01:05:15.368Z,67.32
2024-03-09T01:07:41.864Z,67.58
2024-03-09T01:10:09.327Z,67.55
2024-03-09T01:12:36.647Z,67.33
2024-03-09T01:15:04.398Z,67.31
2024-03-09T01:17:31.197Z,67.30
2024-03-09T01:19:57.828Z,67.27
2024-03-09T01:22:24.432Z,68.42
2024-03-09T01:24:50.956Z,67.37
2024-03-09T01:27:17.646Z,68.00
2024-03-09T01:29:44.077Z,67.87
2024-03-09T01:32:11.696Z,67.83
2024-03-09T01:34:38.400Z,68.16
2024-03-09T01:37:04.985Z,67.71
2024-03-09T01:39:31.555Z,67.59
2024-03-09T01:41:58.347Z,67.08
2024-03-09T01:44:24.862Z,68.18
2024-03-09T01:46:52.032Z,68.08
2024-03-09T01:49:19.835Z,67.62
2024-03-09T01:51:47.065Z,67.54
2024-03-09T01:54:14.247Z,68.00
2024-03-09T01:56:41.305Z,69.00
2024-03-09T01:59:07.895Z,69.46
2024-03-09T02:01:36.724Z,68.02
2024-03-09T02:04:03.728Z,68.47
2024-03-09T02:06:30.205Z,68.62
2024-03-09T02:08:57.506Z,68.96
2024-03-09T02:11:24.901Z,69.08
2024-03-09T02:13:52.403Z,69.06
2024-03-09T02:16:18.864Z,69.23
2024-03-09T02:18:45.336Z,69.15
2024-03-09T02:21:13.685Z,69.65
2024-03-09T02:23:40.350Z,68.89
2024-03-09T02:26:07.516Z,68.84
2024-03-09T02:28:34.098Z,68.90
2024-03-09T02:31:00.617Z,69.59
2024-03-09T02:33:27.206Z,68.97
2024-03-09T02:35:56.053Z,69.57
2024-03-09T02:38:24.263Z,70.06
2024-03-09T02:40:50.771Z,70.32
2024-03-09T02:43:17.724Z,70.64
2024-03-09T02:45:44.346Z,70.48
2024-03-09T02:48:10.817Z,71.08
2024-03-09T02:50:37.315Z,70.49
2024-03-09T02:53:04.084Z,69.98
2024-03-09T02:55:30.637Z,70.41
2024-03-09T02:57:57.443Z,70.66
2024-03-09T03:00:24.120Z,70.61
2024-03-09T03:02:50.961Z,70.76
2024-03-09T03:05:17.462Z,70.80
2024-03-09T03:07:43.981Z,70.02
2024-03-09T03:10:10.425Z,70.46
2024-03-09T03:12:37.220Z,71.29
2024-03-09T03:15:05.094Z,71.40
2024-03-09T03:17:31.600Z,70.74
2024-03-09T03:19:58.087Z,70.97
2024-03-09T03:22:24.621Z,71.96
2024-03-09T03:24:51.051Z,70.97
2024-03-09T03:27:17.673Z,71.30
2024-03-09T03:29:44.175Z,72.35
2024-03-09T03:32:10.955Z,72.51
2024-03-09T03:34:37.805Z,72.71
2024-03-09T03:37:04.266Z,72.40
2024-03-09T03:39:30.801Z,72.93
2024-03-09T03:41:57.220Z,73.31
2024-03-09T03:44:23.779Z,72.68
2024-03-09T03:46:50.235Z,72.89
2024-03-09T03:49:16.862Z,73.14
2024-03-09T03:51:43.359Z,73.05
2024-03-09T03:54:09.827Z,72.69
2024-03-09T03:56:36.295Z,73.60
2024-03-09T03:59:02.767Z,73.42
2024-03-09T04:01:29.244Z,72.91
2024-03-09T04:03:55.773Z,73.30
2024-03-09T04:06:22.200Z,74.03
2024-03-09T04:08:48.909Z,74.62
2024-03-09T04:11:15.563Z,74.08
2024-03-09T04:13:42.231Z,74.45
2024-03-09T04:16:08.708Z,74.32
2024-03-09T04:18:37.752Z,74.44
2024-03-09T04:21:04.632Z,73.84
2024-03-09T04:23:31.223Z,73.33
2024-03-09T04:25:57.729Z,73.82
2024-03-09T04:28:24.255Z,73.49
2024-03-09T04:30:51.581Z,73.72
2024-03-09T04:33:21.508Z,74.35
2024-03-09T04:35:48.678Z,74.44
2024-03-09T04:38:16.985Z,75.47
2024-03-09T04:40:44.479Z,75.83
2024-03-09T04:43:11.701Z,74.06
2024-03-09T04:45:38.271Z,74.46
2024-03-09T04:48:05.293Z,73.25
2024-03-09T04:50:34.671Z,73.97
2024-03-09T04:53:01.489Z,74.64
2024-03-09T04:55:30.232Z,73.66
2024-03-09T04:58:00.133Z,74.74
2024-03-09T05:00:28.851Z,75.40
2024-03-09T05:02:55.866Z,75.01
2024-03-09T05:05:23.114Z,75.83
2024-03-09T05:07:51.693Z,76.21
2024-03-09T05:10:19.924Z,75.19
2024-03-09T05:12:53.423Z,75.92
2024-03-09T05:15:21.185Z,75.01
2024-03-09T05:17:47.780Z,75.02
2024-03-09T05:20:14.386Z,75.50
2024-03-09T05:22:41.004Z,75.23
2024-03-09T05:25:08.142Z,75.00
2024-03-09T05:27:34.641Z,75.55
2024-03-09T05:30:01.109Z,76.43
2024-03-09T05:32:27.779Z,76.87
2024-03-09T05:34:54.587Z,77.14
2024-03-09T05:37:21.027Z,76.46
2024-03-09T05:39:50.314Z,77.40
2024-03-09T05:42:16.755Z,77.22
2024-03-09T05:44:43.291Z,77.16
2024-03-09T05:47:09.858Z,76.55
2024-03-09T05:49:36.318Z,76.24
2024-03-09T05:52:02.799Z,76.85
2024-03-09T05:54:29.961Z,77.42
2024-03-09T05:56:56.388Z,77.67
2024-03-09T05:59:22.839Z,77.61
2024-03-09T06:01:49.369Z,77.14
2024-03-09T06:04:15.824Z,77.70
2024-03-09T06:06:42.236Z,77.20
2024-03-09T06:09:08.797Z,78.20
2024-03-09T06:11:35.371Z,78.03
2024-03-09T06:14:01.941Z,77.32
2024-03-09T06:16:31.303Z,78.06
2024-03-09T06:18:57.880Z,77.70
2024-03-09T06:21:24.615Z,77.80
2024-03-09T06:23:51.085Z,77.80
2024-03-09T06:26:17.761Z,78.68
2024-03-09T06:28:44.402Z,77.44
2024-03-09T06:31:12.088Z,77.59
2024-03-09T06:33:38.586Z,78.19
2024-03-09T06:36:05.267Z,78.34
2024-03-09T06:38:32.240Z,77.94
2024-03-09T06:40:58.768Z,77.61
2024-03-09T06:43:25.232Z,78.13
2024-03-09T06:45:52.076Z,78.49
2024-03-09T06:48:18.970Z,78.02
2024-03-09T06:50:46.150Z,77.63
2024-03-09T06:53:12.976Z,78.00
2024-03-09T06:55:39.514Z,77.21
2024-03-09T06:58:06.211Z,78.26
2024-03-09T07:00:34.197Z,77.08
2024-03-09T07:03:00.825Z,78.44
2024-03-09T07:05:31.185Z,78.23
2024-03-09T07:08:01.326Z,78.55
2024-03-09T07:10:29.103Z,77.94
2024-03-09T07:12:56.126Z,77.63
2024-03-09T07:15:22.723Z,76.48
2024-03-09T07:17:51.291Z,76.03
2024-03-09T07:20:19.230Z,76.95
2024-03-09T07:22:47.888Z,76.55
2024-03-09T07:25:14.927Z,75.56
2024-03-09T07:27:42.624Z,74.29
2024-03-09T07:30:12.752Z,76.01
2024-03-09T07:32:40.016Z,75.99
2024-03-09T07:35:11.150Z,76.15
2024-03-09T07:37:37.703Z,74.11
2024-03-09T07:40:04.662Z,74.46
2024-03-09T07:42:31.252Z,73.69
2024-03-09T07:44:58.178Z,74.53
2024-03-09T07:47:24.708Z,73.70
2024-03-09T07:49:51.301Z,73.33
2024-03-09T07:52:18.020Z,73.45
2024-03-09T07:54:44.560Z,72.68
2024-03-09T07:57:11.018Z,72.01
2024-03-09T07:59:37.722Z,72.38
2024-03-09T08:02:04.594Z,71.46
2024-03-09T08:04:31.141Z,73.12
2024-03-09T08:07:00.178Z,71.05
2024-03-09T08:09:27.887Z,70.82
2024-03-09T08:11:54.438Z,71.85
2024-03-09T08:14:20.902Z,69.61
2024-03-09T08:16:47.406Z,71.40
2024-03-09T08:19:13.973Z,70.39
2024-03-09T08:21:40.432Z,70.71
2024-03-09T08:24:07.054Z,69.42
2024-03-09T08:26:34.341Z,68.69
2024-03-09T08:29:00.867Z,69.83
2024-03-09T08:31:27.301Z,69.69
2024-03-09T08:33:53.785Z,68.79
2024-03-09T08:36:20.883Z,67.93
2024-03-09T08:38:53.658Z,67.59
2024-03-09T08:41:20.206Z,67.91
2024-03-09T08:43:46.728Z,68.51
2024-03-09T08:46:13.250Z,66.92
2024-03-09T08:48:39.790Z,66.13
2024-03-09T08:51:06.240Z,67.36
2024-03-09T08:53:32.800Z,65.90
2024-03-09T08:55:59.504Z,66.28
2024-03-09T08:58:25.964Z,66.17
2024-03-09T09:00:52.427Z,64.43
2024-03-09T09:03:19.110Z,65.36
2024-03-09T09:05:45.883Z,65.23
2024-03-09T09:08:12.491Z,65.22
2024-03-09T09:10:38.969Z,65.41
2024-03-09T09:13:07.264Z,64.07
2024-03-09T09:15:33.729Z,63.94
2024-03-09T09:18:00.356Z,63.87
2024-03-09T09:20:26.927Z,63.89
2024-03-09T09:22:53.516Z,64.04
2024-03-09T09:25:19.988Z,62.83
2024-03-09T09:27:46.625Z,63.17
2024-03-09T09:30:13.685Z,62.37
2024-03-09T09:32:40.321Z,61.57
2024-03-09T09:35:07.210Z,60.47
2024-03-09T09:37:33.717Z,61.33
2024-03-09T09:40:00.362Z,60.57
2024-03-09T09:42:30.384Z,61.50
2024-03-09T09:44:57.598Z,61.25
2024-03-09T09:47:25.822Z,61.71
2024-03-09T09:49:54.359Z,60.47
2024-03-09T09:52:22.864Z,59.02
2024-03-09T09:54:49.540Z,59.67
2024-03-09T09:57:16.037Z,58.45
2024-03-09T09:59:42.561Z,59.09
2024-03-09T10:02:09.039Z,56.65
2024-03-09T10:04:36.914Z,59.83
2024-03-09T10:07:08.210Z,57.58
2024-03-09T10:09:37.833Z,59.28
2024-03-09T10:12:05.362Z,58.44
2024-03-09T10:14:33.018Z,59.56
2024-03-09T10:17:07.828Z,57.44
2024-03-09T10:19:35.533Z,57.19
2024-03-09T10:22:02.160Z,55.70
2024-03-09T10:24:28.724Z,55.78
2024-03-09T10:26:55.482Z,56.20
2024-03-09T10:29:21.942Z,56.00
2024-03-09T10:31:49.232Z,54.33
2024-03-09T10:34:15.729Z,56.55
2024-03-09T10:36:43.858Z,56.26
2024-03-09T10:39:12.574Z,56.20
2024-03-09T10:41:41.496Z,55.77
2024-03-09T10:44:08.024Z,54.23
2024-03-09T10:46:41.738Z,54.22
2024-03-09T10:49:10.651Z,55.70
2024-03-09T10:51:46.191Z,53.33
2024-03-09T10:54:19.514Z,53.09
2024-03-09T10:56:48.030Z,52.23
2024-03-09T10:59:15.544Z,53.06
2024-03-09T11:01:43.442Z,51.53
2024-03-09T11:04:10.352Z,54.82
2024-03-09T11:06:37.057Z,54.35
2024-03-09T11:09:04.609Z,51.57
2024-03-09T11:11:32.275Z,52.26
2024-03-09T11:14:02.151Z,52.19
2024-03-09T11:16:30.412Z,52.88
2024-03-09T11:18:57.963Z,53.69
2024-03-09T11:21:32.759Z,53.41
2024-03-09T11:24:02.788Z,53.04
2024-03-09T11:26:32.058Z,53.36
2024-03-09T11:28:58.645Z,50.91
2024-03-09T11:31:25.751Z,48.89
2024-03-09T11:33:57.172Z,50.25
2024-03-09T11:36:44.641Z,50.29
2024-03-09T11:39:15.244Z,49.13
2024-03-09T11:41:47.978Z,49.90
2024-03-09T11:44:23.205Z,49.05
2024-03-09T11:46:51.563Z,49.72
2024-03-09T11:49:18.138Z,49.13
2024-03-09T11:54:14.220Z,50.56
2024-03-09T11:56:41.908Z,47.68
2024-03-09T11:59:09.810Z,49.13
2024-03-09T12:01:36.568Z,46.33
2024-03-09T12:04:06.606Z,44.73
2024-03-09T12:06:33.997Z,46.25
2024-03-09T12:09:00.595Z,46.31
2024-03-09T12:11:30.171Z,47.15
2024-03-09T12:13:58.087Z,46.63
2024-03-09T12:16:26.495Z,46.45
2024-03-09T12:18:54.880Z,49.00
2024-03-09T12:21:23.339Z,47.75
2024-03-09T12:23:50.967Z,45.72
2024-03-09T12:26:17.671Z,44.64
2024-03-09T12:28:45.461Z,45.99
2024-03-09T12:31:12.471Z,46.81
2024-03-09T12:33:40.018Z,45.23
2024-03-09T12:36:09.120Z,42.16
2024-03-09T12:38:36.611Z,43.15
2024-03-09T12:41:04.034Z,40.94
2024-03-09T12:43:30.619Z,43.27
2024-03-09T12:46:01.812Z,41.69
2024-03-09T12:48:30.008Z,42.39
2024-03-09T12:50:56.468Z,41.24
2024-03-09T12:53:24.804Z,41.75
2024-03-09T12:55:51.370Z,43.11
2024-03-09T12:58:18.272Z,41.28
2024-03-09T13:00:45.112Z,39.89
2024-03-09T13:03:11.625Z,41.06
2024-03-09T13:05:38.295Z,42.16
2024-03-09T13:08:05.260Z,38.98
2024-03-09T13:10:31.918Z,39.56
2024-03-09T13:12:59.099Z,38.32
2024-03-09T13:15:25.998Z,39.67
2024-03-09T13:17:54.412Z,39.96
2024-03-09T13:20:21.166Z,39.87
2024-03-09T13:22:48.839Z,38.90
2024-03-09T13:25:16.166Z,38.89
2024-03-09T13:27:42.912Z,39.61
2024-03-09T13:30:11.025Z,38.46
2024-03-09T13:32:37.577Z,40.25
2024-03-09T13:35:04.310Z,38.00
2024-03-09T13:37:30.979Z,38.94
2024-03-09T13:39:57.515Z,39.08
2024-03-09T13:42:24.064Z,38.73
2024-03-09T13:44:51.120Z,37.80
2024-03-09T13:47:17.913Z,38.69
2024-03-09T13:49:44.626Z,38.90
2024-03-09T13:52:11.060Z,38.82
2024-03-09T13:54:37.595Z,37.07
2024-03-09T13:57:04.760Z,39.15
2024-03-09T13:59:31.247Z,38.29
2024-03-09T14:01:57.796Z,37.32
2024-03-09T14:04:25.746Z,38.21
2024-03-09T14:07:03.110Z,36.93
2024-03-09T14:09:35.462Z,38.05
2024-03-09T14:12:02.422Z,37.26
2024-03-09T14:14:29.215Z,39.57
2024-03-09T14:16:55.750Z,38.60
2024-03-09T14:19:24.745Z,37.03
2024-03-09T14:21:51.543Z,39.78
2024-03-09T14:24:18.192Z,39.98
2024-03-09T14:26:44.683Z,40.15
2024-03-09T14:29:11.254Z,41.30
2024-03-09T14:31:37.869Z,41.08
2024-03-09T14:34:04.873Z,42.05
2024-03-09T14:36:31.428Z,40.10
2024-03-09T14:38:58.181Z,40.83
2024-03-09T14:41:26.889Z,40.18
2024-03-09T14:43:54.228Z,41.48
2024-03-09T14:46:20.747Z,42.28
2024-03-09T14:48:48.879Z,42.42
2024-03-09T14:51:17.187Z,42.33
2024-03-09T14:53:43.818Z,42.70
2024-03-09T14:56:10.793Z,43.52
2024-03-09T14:58:38.682Z,44.02
2024-03-09T15:01:05.251Z,44.54
2024-03-09T15:03:31.701Z,43.73
2024-03-09T15:05:58.568Z,45.02
2024-03-09T15:08:25.558Z,44.80
2024-03-09T15:10:52.247Z,44.81
2024-03-09T15:13:18.812Z,45.27
2024-03-09T15:15:45.394Z,45.30
2024-03-09T15:18:12.649Z,45.16
2024-03-09T15:20:39.958Z,46.28
2024-03-09T15:23:06.450Z,46.32
2024-03-09T15:25:32.889Z,46.50
2024-03-09T15:27:59.379Z,46.49
2024-03-09T15:30:26.437Z,46.85
2024-03-09T15:32:53.639Z,46.81
2024-03-09T15:35:20.589Z,46.84
2024-03-09T15:37:48.886Z,47.53
2024-03-09T15:40:15.684Z,47.20
2024-03-09T15:42:42.329Z,47.73
2024-03-09T15:45:09.593Z,48.11
2024-03-09T15:47:36.180Z,47.88
2024-03-09T15:50:02.823Z,48.17
2024-03-09T15:52:29.328Z,48.70
2024-03-09T15:54:55.776Z,48.80
2024-03-09T15:57:22.220Z,49.18
2024-03-09T15:59:48.644Z,49.78
2024-03-09T16:02:15.128Z,49.46
2024-03-09T16:04:41.657Z,50.11
2024-03-09T16:07:08.149Z,50.50
2024-03-09T16:09:34.732Z,50.77
2024-03-09T16:12:01.276Z,51.24
2024-03-09T16:14:27.847Z,51.55
2024-03-09T16:16:54.311Z,50.80
2024-03-09T16:19:20.825Z,51.83
2024-03-09T16:21:47.303Z,51.49
2024-03-09T16:24:13.823Z,51.82
2024-03-09T16:26:40.280Z,51.79
2024-03-09T16:29:06.913Z,53.42
2024-03-09T16:31:36.616Z,52.18
2024-03-09T16:34:04.106Z,52.38
2024-03-09T16:36:30.535Z,53.54
2024-03-09T16:38:57.012Z,53.62
2024-03-09T16:41:24.065Z,54.22
2024-03-09T16:43:50.896Z,54.19
2024-03-09T16:46:17.679Z,54.54
2024-03-09T16:48:44.162Z,54.59
2024-03-09T16:51:11.208Z,55.43
2024-03-09T16:53:38.390Z,54.50
2024-03-09T16:56:05.480Z,55.30
2024-03-09T16:58:32.288Z,54.75
2024-03-09T17:00:58.790Z,54.04
2024-03-09T17:03:25.336Z,54.83
2024-03-09T17:05:51.789Z,55.53
2024-03-09T17:08:18.483Z,54.67
2024-03-09T17:10:45.088Z,55.31
2024-03-09T17:13:11.618Z,54.97
2024-03-09T17:15:38.093Z,55.64
2024-03-09T17:18:04.812Z,55.58
2024-03-09T17:20:31.641Z,55.06
2024-03-09T17:23:01.205Z,54.75
2024-03-09T17:25:27.720Z,55.40
2024-03-09T17:27:54.180Z,55.76
2024-03-09T17:30:20.871Z,55.97
2024-03-09T17:32:49.953Z,56.23
2024-03-09T17:35:18.025Z,55.46
2024-03-09T17:37:44.678Z,55.93
2024-03-09T17:40:11.734Z,55.79
2024-03-09T17:42:38.215Z,55.85
2024-03-09T17:45:04.998Z,55.87
2024-03-09T17:47:31.471Z,55.96
2024-03-09T17:49:58.035Z,56.05
2024-03-09T17:52:24.657Z,55.94
2024-03-09T17:55:02.464Z,55.58
2024-03-09T17:57:31.407Z,56.52
2024-03-09T17:59:57.920Z,56.60
2024-03-09T18:02:24.639Z,55.76
2024-03-09T18:04:51.429Z,56.42
2024-03-09T18:07:18.102Z,56.59
2024-03-09T18:09:44.571Z,56.43
2024-03-09T18:12:19.005Z,55.84
2024-03-09T18:14:45.763Z,56.63
2024-03-09T18:17:12.453Z,56.71
2024-03-09T18:19:40.662Z,56.33
2024-03-09T18:22:07.904Z,56.31
2024-03-09T18:24:37.342Z,56.68
2024-03-09T18:27:12.045Z,56.87
2024-03-09T18:29:39.937Z,57.08
2024-03-09T18:32:06.808Z,56.50
2024-03-09T18:34:33.356Z,56.49
2024-03-09T18:37:00.029Z,57.06
2024-03-09T18:39:26.713Z,57.44
2024-03-09T18:41:53.603Z,57.00
2024-03-09T18:44:20.202Z,56.55
2024-03-09T18:46:46.905Z,56.76
2024-03-09T18:49:13.512Z,56.84
2024-03-09T18:51:40.122Z,56.96
2024-03-09T18:54:06.707Z,57.14
2024-03-09T18:56:33.321Z,57.11
2024-03-09T18:58:59.903Z,57.04
2024-03-09T19:01:26.480Z,57.18
2024-03-09T19:03:53.708Z,57.70
2024-03-09T19:06:27.490Z,57.03
2024-03-09T19:08:57.393Z,56.81
2024-03-09T19:11:24.179Z,57.11
2024-03-09T19:13:50.943Z,56.99
2024-03-09T19:16:23.243Z,56.95
2024-03-09T19:18:50.161Z,56.88
2024-03-09T19:21:16.689Z,56.57
2024-03-09T19:23:43.266Z,56.98
2024-03-09T19:26:09.869Z,56.97
2024-03-09T19:28:36.439Z,57.45
2024-03-09T19:31:02.963Z,57.31
2024-03-09T19:33:29.425Z,56.53
2024-03-09T19:35:55.934Z,57.19
2024-03-09T19:38:22.787Z,56.68
2024-03-09T19:40:49.338Z,57.78
2024-03-09T19:43:15.896Z,58.02
2024-03-09T19:45:42.346Z,57.43
2024-03-09T19:48:08.863Z,58.18
2024-03-09T19:50:35.387Z,57.80
2024-03-09T19:53:01.892Z,58.42
2024-03-09T19:55:28.556Z,58.34
2024-03-09T19:57:55.287Z,58.46
2024-03-09T20:00:23.167Z,58.66
2024-03-09T20:02:51.134Z,58.86
2024-03-09T20:05:21.884Z,58.74
2024-03-09T20:07:49.509Z,58.55
2024-03-09T20:10:16.334Z,59.25
2024-03-09T20:12:47.628Z,58.78
2024-03-09T20:15:16.902Z,59.28
2024-03-09T20:17:50.874Z,59.10
2024-03-09T20:20:18.682Z,59.47
2024-03-09T20:22:45.923Z,59.74
2024-03-09T20:25:13.186Z,59.79
2024-03-09T20:27:47.541Z,60.13
2024-03-09T20:30:14.678Z,59.51
2024-03-09T20:32:45.201Z,59.46
2024-03-09T20:35:15.805Z,59.43
2024-03-09T20:37:43.130Z,59.19
2024-03-09T20:40:12.071Z,59.67
2024-03-09T20:43:03.438Z,58.64
2024-03-09T20:45:30.148Z,58.63
2024-03-09T20:47:57.048Z,58.70
2024-03-09T20:50:23.966Z,58.47
2024-03-09T20:52:51.593Z,58.45
2024-03-09T20:55:21.062Z,58.44
2024-03-09T20:57:48.433Z,57.76
2024-03-09T21:00:15.221Z,57.59
2024-03-09T21:02:41.984Z,57.78
2024-03-09T21:05:09.603Z,57.46
2024-03-09T21:07:39.892Z,57.32
2024-03-09T21:10:09.897Z,57.75
2024-03-09T21:12:37.285Z,57.13
2024-03-09T21:15:04.677Z,57.08
2024-03-09T21:17:33.977Z,58.21
2024-03-09T21:20:00.999Z,57.62
2024-03-09T21:22:27.680Z,57.69
2024-03-09T21:25:02.923Z,57.26
2024-03-09T21:27:35.574Z,57.97
2024-03-09T21:30:08.244Z,57.74
2024-03-09T21:32:38.913Z,57.85
2024-03-09T21:35:06.810Z,58.30
2024-03-09T21:37:33.341Z,58.28
2024-03-09T21:40:02.729Z,58.28
2024-03-09T21:42:29.494Z,58.51
2024-03-09T21:44:56.121Z,58.74
2024-03-09T21:47:22.713Z,58.71
2024-03-09T21:49:49.253Z,58.93
2024-03-09T21:52:18.246Z,59.38
2024-03-09T21:54:44.818Z,59.37
2024-03-09T21:57:13.574Z,59.21
2024-03-09T21:59:40.278Z,59.02
2024-03-09T22:02:08.549Z,58.58
2024-03-09T22:04:36.126Z,58.57
2024-03-09T22:07:05.646Z,58.24
2024-03-09T22:09:32.634Z,58.48
2024-03-09T22:11:59.686Z,58.00
2024-03-09T22:14:28.728Z,58.42
2024-03-09T22:17:21.995Z,58.39
2024-03-09T22:19:51.660Z,57.89
2024-03-09T22:22:18.414Z,58.23
2024-03-09T22:24:45.027Z,57.42
2024-03-09T22:27:12.239Z,57.98
2024-03-09T22:29:39.014Z,57.54
2024-03-09T22:32:09.203Z,58.11
2024-03-09T22:34:36.381Z,57.79
2024-03-09T22:37:03.249Z,57.63
2024-03-09T22:39:30.231Z,57.72
2024-03-09T22:41:58.466Z,57.57
2024-03-09T22:44:25.946Z,57.67
2024-03-09T22:46:56.374Z,56.78
2024-03-09T22:49:23.140Z,56.81
2024-03-09T22:51:53.041Z,56.33
2024-03-09T22:54:22.555Z,56.26
2024-03-09T22:56:49.181Z,56.69
2024-03-09T22:59:15.911Z,56.03
2024-03-09T23:01:42.389Z,56.10
2024-03-09T23:04:08.842Z,55.80
2024-03-09T23:06:35.351Z,55.72
2024-03-09T23:09:01.923Z,55.53
2024-03-09T23:11:28.491Z,56.04
2024-03-09T23:13:55.296Z,55.43
2024-03-09T23:16:21.791Z,55.90
2024-03-09T23:18:48.447Z,55.43
2024-03-09T23:21:14.906Z,55.45
2024-03-09T23:23:41.460Z,55.31
2024-03-09T23:26:08.030Z,55.10
2024-03-09T23:28:34.505Z,55.05
2024-03-09T23:31:00.995Z,55.20
2024-03-09T23:33:29.625Z,55.37
2024-03-09T23:35:56.049Z,54.50
2024-03-09T23:38:22.629Z,55.05
2024-03-09T23:40:49.396Z,54.87
2024-03-09T23:43:16.972Z,54.41
2024-03-09T23:45:43.672Z,54.54
2024-03-09T23:48:13.840Z,54.65
2024-03-09T23:50:41.234Z,54.79
2024-03-09T23:53:08.119Z,54.75
2024-03-09T23:55:34.949Z,54.68
2024-03-09T23:58:01.420Z,55.00
